FNUG

Uige Airport

Uige, Angola
METAR FNUG 191500Z 21008KT 3000 TSRA SCT020 FEW024CB OVC070 24/20 Q1011
Observed Flight Rules
Feb-19 @ 15:00 UTC (16 hours ago) Instrument Flight Rules
Wind Visibility Clouds Conditions
210° at 8 knots 2,993 meters
  • Scattered at 2,000' AGL
  • Few at 2,400' AGL
  • Overcast at 7,000' AGL
  • Thunderstorm
  • Rain
Temperatures Readings
Current 24°C / 75°F
Dewpoint 20°C / 68°F
Humidity 78%
Altimeter 29.85" Hg
Pressure 1011 hPa
Elevation 829
METAR FNUG 191500Z 21008KT 3000 TSRA SCT020 FEW024CB OVC070 24/20 Q1011
Observed Flight Rules
Feb-19 @ 15:00 UTC
(16 hours ago)
IFR
Wind Visibility
210° at 8 knots 2,993 meters
Clouds
  • Scattered at 2,000' AGL
  • Few at 2,400' AGL
  • Overcast at 7,000' AGL
Conditions
  • Thunderstorm
  • Rain
Temperature Dewpoint
24°C / 75°F 20°C / 68°F
Humidity Altimeter Pressure
78% 29.85" Hg 1011 hPa